Soddy Daisy, Tennessee
Current Conditions -  °F | °C
As of 1:53 AM on Thursday 23 Oct 2014 (Local Time) from KCHA Reporting Station
Clear Clear  
Wind Chill: 45°   Ceiling: Unl
Heat Index: 49°   Visibility: 10mi
Dew Point: 41°   Wind: 9mph
Humidity: 74%   Direction: 360°N
Pressure: 30.18"   Gusts: NA
Location:  35.24°N, 85.19°W
Report Text: KCHA 230553Z AUTO 36008KT 10SM CLR 09/05 A3018 RMK AO2 SLP220 T00940050 10139 20094 58009
Loading
Personal Weather Stations






























Interactive Weather Map
Tropical Storm Tracking
New forecast layout! Learn more

10-Day Weather Forecast

Advertisements
Track Severe Weather on mobile